sensor_id;sensor_type;location;lat;lon;timestamp;P1;durP1;ratioP1;P2;durP2;ratioP2
68097;SDS011;54886;47.036;15.466;2023-05-02T00:01:56;10.57;;;4.78;;
68097;SDS011;54886;47.036;15.466;2023-05-02T00:04:22;8.00;;;4.60;;
68097;SDS011;54886;47.036;15.466;2023-05-02T00:06:48;8.65;;;4.50;;
68097;SDS011;54886;47.036;15.466;2023-05-02T00:09:15;6.97;;;4.43;;
68097;SDS011;54886;47.036;15.466;2023-05-02T00:11:40;7.45;;;4.50;;
68097;SDS011;54886;47.036;15.466;2023-05-02T00:14:06;6.88;;;4.60;;
68097;SDS011;54886;47.036;15.466;2023-05-02T00:16:32;7.38;;;4.50;;
68097;SDS011;54886;47.036;15.466;2023-05-02T00:18:57;6.78;;;4.15;;
68097;SDS011;54886;47.036;15.466;2023-05-02T00:21:22;7.15;;;4.32;;
68097;SDS011;54886;47.036;15.466;2023-05-02T00:23:49;7.88;;;4.40;;
68097;SDS011;54886;47.036;15.466;2023-05-02T00:26:15;7.88;;;4.40;;
68097;SDS011;54886;47.036;15.466;2023-05-02T00:28:40;7.68;;;4.50;;
68097;SDS011;54886;47.036;15.466;2023-05-02T00:31:06;8.75;;;4.25;;
68097;SDS011;54886;47.036;15.466;2023-05-02T00:33:31;5.85;;;4.10;;
68097;SDS011;54886;47.036;15.466;2023-05-02T00:35:56;7.43;;;4.28;;
68097;SDS011;54886;47.036;15.466;2023-05-02T00:38:22;7.00;;;4.38;;
68097;SDS011;54886;47.036;15.466;2023-05-02T00:40:48;7.43;;;4.20;;
68097;SDS011;54886;47.036;15.466;2023-05-02T00:43:16;6.88;;;4.40;;
68097;SDS011;54886;47.036;15.466;2023-05-02T00:45:42;7.43;;;4.13;;
68097;SDS011;54886;47.036;15.466;2023-05-02T00:48:08;7.57;;;4.63;;
68097;SDS011;54886;47.036;15.466;2023-05-02T00:50:38;5.85;;;4.20;;
68097;SDS011;54886;47.036;15.466;2023-05-02T00:53:05;7.50;;;4.35;;
68097;SDS011;54886;47.036;15.466;2023-05-02T00:55:32;6.93;;;4.22;;
68097;SDS011;54886;47.036;15.466;2023-05-02T00:57:58;7.65;;;4.32;;
68097;SDS011;54886;47.036;15.466;2023-05-02T01:03:20;8.05;;;4.40;;
68097;SDS011;54886;47.036;15.466;2023-05-02T01:05:55;8.10;;;4.30;;
68097;SDS011;54886;47.036;15.466;2023-05-02T01:08:33;6.60;;;4.22;;
68097;SDS011;54886;47.036;15.466;2023-05-02T01:13:35;9.52;;;4.70;;
68097;SDS011;54886;47.036;15.466;2023-05-02T01:16:02;6.82;;;4.40;;
68097;SDS011;54886;47.036;15.466;2023-05-02T01:18:30;8.43;;;4.15;;
68097;SDS011;54886;47.036;15.466;2023-05-02T01:21:08;7.10;;;4.45;;
68097;SDS011;54886;47.036;15.466;2023-05-02T01:29:14;6.63;;;4.30;;
68097;SDS011;54886;47.036;15.466;2023-05-02T01:31:43;7.40;;;4.75;;
68097;SDS011;54886;47.036;15.466;2023-05-02T01:34:12;8.38;;;5.43;;
68097;SDS011;54886;47.036;15.466;2023-05-02T01:36:41;7.95;;;4.60;;
68097;SDS011;54886;47.036;15.466;2023-05-02T01:39:08;8.02;;;4.50;;
68097;SDS011;54886;47.036;15.466;2023-05-02T01:44:02;6.85;;;4.32;;
68097;SDS011;54886;47.036;15.466;2023-05-02T01:46:30;7.97;;;4.25;;
68097;SDS011;54886;47.036;15.466;2023-05-02T01:48:59;6.45;;;4.38;;
68097;SDS011;54886;47.036;15.466;2023-05-02T01:51:27;6.57;;;4.40;;
68097;SDS011;54886;47.036;15.466;2023-05-02T01:54:00;8.93;;;4.60;;
68097;SDS011;54886;47.036;15.466;2023-05-02T01:56:30;8.50;;;3.95;;
68097;SDS011;54886;47.036;15.466;2023-05-02T01:58:58;6.47;;;4.25;;
68097;SDS011;54886;47.036;15.466;2023-05-02T02:01:24;6.90;;;4.40;;
68097;SDS011;54886;47.036;15.466;2023-05-02T02:03:56;7.15;;;4.07;;
68097;SDS011;54886;47.036;15.466;2023-05-02T02:06:22;7.30;;;4.57;;
68097;SDS011;54886;47.036;15.466;2023-05-02T02:08:48;7.20;;;4.50;;
68097;SDS011;54886;47.036;15.466;2023-05-02T02:11:17;7.35;;;4.28;;
68097;SDS011;54886;47.036;15.466;2023-05-02T02:13:50;5.78;;;3.90;;
68097;SDS011;54886;47.036;15.466;2023-05-02T02:16:23;6.43;;;4.32;;
68097;SDS011;54886;47.036;15.466;2023-05-02T02:18:53;7.22;;;4.25;;
68097;SDS011;54886;47.036;15.466;2023-05-02T02:21:20;6.88;;;4.30;;
68097;SDS011;54886;47.036;15.466;2023-05-02T02:23:48;6.32;;;4.03;;
68097;SDS011;54886;47.036;15.466;2023-05-02T02:26:18;7.13;;;4.55;;
68097;SDS011;54886;47.036;15.466;2023-05-02T02:28:45;6.57;;;4.32;;
68097;SDS011;54886;47.036;15.466;2023-05-02T02:31:11;7.72;;;4.40;;
68097;SDS011;54886;47.036;15.466;2023-05-02T02:33:37;6.00;;;3.95;;
68097;SDS011;54886;47.036;15.466;2023-05-02T02:36:11;7.43;;;4.47;;
68097;SDS011;54886;47.036;15.466;2023-05-02T02:38:45;6.03;;;4.20;;
68097;SDS011;54886;47.036;15.466;2023-05-02T02:46:53;7.50;;;4.13;;
68097;SDS011;54886;47.036;15.466;2023-05-02T02:55:05;6.47;;;4.10;;
68097;SDS011;54886;47.036;15.466;2023-05-02T03:00:18;8.30;;;4.60;;
68097;SDS011;54886;47.036;15.466;2023-05-02T03:02:46;10.60;;;5.07;;
68097;SDS011;54886;47.036;15.466;2023-05-02T03:05:12;7.40;;;4.75;;
68097;SDS011;54886;47.036;15.466;2023-05-02T03:07:39;8.45;;;4.95;;
68097;SDS011;54886;47.036;15.466;2023-05-02T03:10:05;7.00;;;5.00;;
68097;SDS011;54886;47.036;15.466;2023-05-02T03:12:31;8.13;;;5.20;;
68097;SDS011;54886;47.036;15.466;2023-05-02T03:15:02;8.07;;;4.93;;
68097;SDS011;54886;47.036;15.466;2023-05-02T03:17:29;9.60;;;4.70;;
68097;SDS011;54886;47.036;15.466;2023-05-02T03:19:54;9.85;;;5.10;;
68097;SDS011;54886;47.036;15.466;2023-05-02T03:22:21;8.63;;;4.88;;
68097;SDS011;54886;47.036;15.466;2023-05-02T03:24:46;10.70;;;5.60;;
68097;SDS011;54886;47.036;15.466;2023-05-02T03:27:12;7.47;;;4.85;;
68097;SDS011;54886;47.036;15.466;2023-05-02T03:29:37;7.70;;;5.03;;
68097;SDS011;54886;47.036;15.466;2023-05-02T03:32:02;8.98;;;5.15;;
68097;SDS011;54886;47.036;15.466;2023-05-02T03:34:28;8.52;;;4.97;;
68097;SDS011;54886;47.036;15.466;2023-05-02T03:36:53;9.70;;;5.35;;
68097;SDS011;54886;47.036;15.466;2023-05-02T03:39:19;8.25;;;5.80;;
68097;SDS011;54886;47.036;15.466;2023-05-02T03:41:44;9.77;;;5.47;;
68097;SDS011;54886;47.036;15.466;2023-05-02T03:44:10;10.50;;;5.75;;
68097;SDS011;54886;47.036;15.466;2023-05-02T03:46:36;10.43;;;5.50;;
68097;SDS011;54886;47.036;15.466;2023-05-02T03:49:01;9.70;;;5.70;;
68097;SDS011;54886;47.036;15.466;2023-05-02T03:51:26;10.07;;;5.75;;
68097;SDS011;54886;47.036;15.466;2023-05-02T03:53:52;16.90;;;7.82;;
68097;SDS011;54886;47.036;15.466;2023-05-02T03:56:18;11.65;;;6.70;;
68097;SDS011;54886;47.036;15.466;2023-05-02T03:58:44;13.27;;;7.32;;
68097;SDS011;54886;47.036;15.466;2023-05-02T04:01:13;13.60;;;6.78;;
68097;SDS011;54886;47.036;15.466;2023-05-02T04:03:40;10.73;;;6.15;;
68097;SDS011;54886;47.036;15.466;2023-05-02T04:06:05;10.35;;;6.15;;
68097;SDS011;54886;47.036;15.466;2023-05-02T04:08:31;9.98;;;5.38;;
68097;SDS011;54886;47.036;15.466;2023-05-02T04:10:57;11.35;;;5.95;;
68097;SDS011;54886;47.036;15.466;2023-05-02T04:13:22;9.95;;;6.10;;
68097;SDS011;54886;47.036;15.466;2023-05-02T04:15:47;7.90;;;5.28;;
68097;SDS011;54886;47.036;15.466;2023-05-02T04:18:13;9.50;;;5.32;;
68097;SDS011;54886;47.036;15.466;2023-05-02T04:20:38;11.15;;;4.90;;
68097;SDS011;54886;47.036;15.466;2023-05-02T04:23:07;8.57;;;5.40;;
68097;SDS011;54886;47.036;15.466;2023-05-02T04:25:32;11.18;;;5.63;;
68097;SDS011;54886;47.036;15.466;2023-05-02T04:27:58;7.43;;;5.18;;
68097;SDS011;54886;47.036;15.466;2023-05-02T04:30:23;9.27;;;5.32;;
68097;SDS011;54886;47.036;15.466;2023-05-02T04:32:49;7.10;;;4.90;;
68097;SDS011;54886;47.036;15.466;2023-05-02T04:35:14;8.18;;;5.07;;
68097;SDS011;54886;47.036;15.466;2023-05-02T04:37:40;7.78;;;5.00;;
68097;SDS011;54886;47.036;15.466;2023-05-02T04:40:06;8.60;;;5.13;;
68097;SDS011;54886;47.036;15.466;2023-05-02T04:42:32;10.18;;;5.55;;
68097;SDS011;54886;47.036;15.466;2023-05-02T04:44:57;8.90;;;5.15;;
68097;SDS011;54886;47.036;15.466;2023-05-02T04:47:23;9.05;;;5.78;;
68097;SDS011;54886;47.036;15.466;2023-05-02T04:49:48;8.63;;;5.40;;
68097;SDS011;54886;47.036;15.466;2023-05-02T04:52:13;16.13;;;6.15;;
68097;SDS011;54886;47.036;15.466;2023-05-02T04:54:39;8.38;;;5.43;;
68097;SDS011;54886;47.036;15.466;2023-05-02T04:57:04;9.20;;;5.43;;
68097;SDS011;54886;47.036;15.466;2023-05-02T04:59:31;8.18;;;5.00;;
68097;SDS011;54886;47.036;15.466;2023-05-02T05:01:57;8.73;;;5.15;;
68097;SDS011;54886;47.036;15.466;2023-05-02T05:04:23;8.02;;;5.18;;
68097;SDS011;54886;47.036;15.466;2023-05-02T05:06:48;9.02;;;5.40;;
68097;SDS011;54886;47.036;15.466;2023-05-02T05:09:14;7.88;;;5.10;;
68097;SDS011;54886;47.036;15.466;2023-05-02T05:11:40;7.85;;;5.15;;
68097;SDS011;54886;47.036;15.466;2023-05-02T05:14:07;9.00;;;5.20;;
68097;SDS011;54886;47.036;15.466;2023-05-02T05:16:33;9.38;;;4.80;;
68097;SDS011;54886;47.036;15.466;2023-05-02T05:18:59;9.32;;;5.50;;
68097;SDS011;54886;47.036;15.466;2023-05-02T05:21:24;9.40;;;5.40;;
68097;SDS011;54886;47.036;15.466;2023-05-02T05:23:51;8.75;;;5.40;;
68097;SDS011;54886;47.036;15.466;2023-05-02T05:26:16;7.65;;;5.50;;
68097;SDS011;54886;47.036;15.466;2023-05-02T05:28:42;8.27;;;5.38;;
68097;SDS011;54886;47.036;15.466;2023-05-02T05:31:09;9.07;;;5.20;;
68097;SDS011;54886;47.036;15.466;2023-05-02T05:33:36;10.45;;;5.47;;
68097;SDS011;54886;47.036;15.466;2023-05-02T05:36:03;10.25;;;5.45;;
68097;SDS011;54886;47.036;15.466;2023-05-02T05:38:29;8.27;;;5.28;;
68097;SDS011;54886;47.036;15.466;2023-05-02T05:40:55;7.97;;;5.43;;
68097;SDS011;54886;47.036;15.466;2023-05-02T05:43:20;8.80;;;5.65;;
68097;SDS011;54886;47.036;15.466;2023-05-02T05:45:46;10.63;;;5.95;;
68097;SDS011;54886;47.036;15.466;2023-05-02T05:48:11;9.00;;;5.68;;
68097;SDS011;54886;47.036;15.466;2023-05-02T05:50:36;11.70;;;6.35;;
68097;SDS011;54886;47.036;15.466;2023-05-02T05:53:02;9.95;;;5.93;;
68097;SDS011;54886;47.036;15.466;2023-05-02T05:55:27;10.40;;;6.40;;
68097;SDS011;54886;47.036;15.466;2023-05-02T05:57:53;10.73;;;5.78;;
68097;SDS011;54886;47.036;15.466;2023-05-02T06:00:18;9.20;;;5.95;;
68097;SDS011;54886;47.036;15.466;2023-05-02T06:02:43;9.60;;;5.78;;
68097;SDS011;54886;47.036;15.466;2023-05-02T06:05:09;9.60;;;6.63;;
68097;SDS011;54886;47.036;15.466;2023-05-02T06:07:34;9.30;;;6.18;;
68097;SDS011;54886;47.036;15.466;2023-05-02T06:10:00;9.48;;;6.32;;
68097;SDS011;54886;47.036;15.466;2023-05-02T06:12:25;10.45;;;6.32;;
68097;SDS011;54886;47.036;15.466;2023-05-02T06:14:50;10.77;;;6.30;;
68097;SDS011;54886;47.036;15.466;2023-05-02T06:17:16;11.23;;;6.40;;
68097;SDS011;54886;47.036;15.466;2023-05-02T06:19:42;10.88;;;6.53;;
68097;SDS011;54886;47.036;15.466;2023-05-02T06:22:07;12.40;;;6.40;;
68097;SDS011;54886;47.036;15.466;2023-05-02T06:24:35;10.90;;;5.85;;
68097;SDS011;54886;47.036;15.466;2023-05-02T06:27:01;9.35;;;6.32;;
68097;SDS011;54886;47.036;15.466;2023-05-02T06:29:27;8.52;;;6.05;;
68097;SDS011;54886;47.036;15.466;2023-05-02T06:31:55;10.18;;;6.10;;
68097;SDS011;54886;47.036;15.466;2023-05-02T06:34:21;8.90;;;6.38;;
68097;SDS011;54886;47.036;15.466;2023-05-02T06:36:46;11.05;;;6.03;;
68097;SDS011;54886;47.036;15.466;2023-05-02T06:39:12;12.60;;;6.40;;
68097;SDS011;54886;47.036;15.466;2023-05-02T06:41:37;9.40;;;6.22;;
68097;SDS011;54886;47.036;15.466;2023-05-02T06:44:03;12.05;;;6.82;;
68097;SDS011;54886;47.036;15.466;2023-05-02T06:46:28;13.60;;;7.13;;
68097;SDS011;54886;47.036;15.466;2023-05-02T06:48:55;9.35;;;6.15;;
68097;SDS011;54886;47.036;15.466;2023-05-02T06:51:20;11.25;;;6.30;;
68097;SDS011;54886;47.036;15.466;2023-05-02T06:53:46;9.85;;;5.85;;
68097;SDS011;54886;47.036;15.466;2023-05-02T06:56:12;10.43;;;6.10;;
68097;SDS011;54886;47.036;15.466;2023-05-02T06:58:37;10.70;;;5.70;;
68097;SDS011;54886;47.036;15.466;2023-05-02T07:01:02;11.60;;;6.63;;
68097;SDS011;54886;47.036;15.466;2023-05-02T07:03:28;10.30;;;6.25;;
68097;SDS011;54886;47.036;15.466;2023-05-02T07:05:53;9.70;;;5.75;;
68097;SDS011;54886;47.036;15.466;2023-05-02T07:08:19;10.07;;;6.40;;
68097;SDS011;54886;47.036;15.466;2023-05-02T07:10:46;9.90;;;6.07;;
68097;SDS011;54886;47.036;15.466;2023-05-02T07:13:11;10.88;;;6.38;;
68097;SDS011;54886;47.036;15.466;2023-05-02T07:15:37;10.40;;;5.72;;
68097;SDS011;54886;47.036;15.466;2023-05-02T07:18:02;12.30;;;6.28;;
68097;SDS011;54886;47.036;15.466;2023-05-02T07:20:28;10.95;;;5.88;;
68097;SDS011;54886;47.036;15.466;2023-05-02T07:22:53;9.40;;;5.53;;
68097;SDS011;54886;47.036;15.466;2023-05-02T07:25:18;10.10;;;6.20;;
68097;SDS011;54886;47.036;15.466;2023-05-02T07:27:44;11.63;;;6.25;;
68097;SDS011;54886;47.036;15.466;2023-05-02T07:30:10;9.45;;;5.78;;
68097;SDS011;54886;47.036;15.466;2023-05-02T07:32:35;10.10;;;6.32;;
68097;SDS011;54886;47.036;15.466;2023-05-02T07:35:01;9.90;;;5.45;;
68097;SDS011;54886;47.036;15.466;2023-05-02T07:37:30;9.90;;;5.82;;
68097;SDS011;54886;47.036;15.466;2023-05-02T07:39:58;9.00;;;5.82;;
68097;SDS011;54886;47.036;15.466;2023-05-02T07:42:27;11.82;;;5.80;;
68097;SDS011;54886;47.036;15.466;2023-05-02T07:44:53;10.30;;;5.60;;
68097;SDS011;54886;47.036;15.466;2023-05-02T07:47:19;10.38;;;6.05;;
68097;SDS011;54886;47.036;15.466;2023-05-02T07:49:44;9.07;;;5.55;;
68097;SDS011;54886;47.036;15.466;2023-05-02T07:52:10;9.32;;;5.80;;
68097;SDS011;54886;47.036;15.466;2023-05-02T07:54:35;9.20;;;5.30;;
68097;SDS011;54886;47.036;15.466;2023-05-02T07:57:00;11.48;;;5.95;;
68097;SDS011;54886;47.036;15.466;2023-05-02T07:59:28;9.82;;;5.47;;
68097;SDS011;54886;47.036;15.466;2023-05-02T08:01:55;8.73;;;5.53;;
68097;SDS011;54886;47.036;15.466;2023-05-02T08:04:20;10.73;;;5.38;;
68097;SDS011;54886;47.036;15.466;2023-05-02T08:06:45;10.35;;;5.70;;
68097;SDS011;54886;47.036;15.466;2023-05-02T08:09:11;8.23;;;5.53;;
68097;SDS011;54886;47.036;15.466;2023-05-02T08:11:36;9.18;;;5.25;;
68097;SDS011;54886;47.036;15.466;2023-05-02T08:14:01;8.00;;;5.13;;
68097;SDS011;54886;47.036;15.466;2023-05-02T08:16:27;8.57;;;5.40;;
68097;SDS011;54886;47.036;15.466;2023-05-02T08:18:52;9.02;;;5.25;;
68097;SDS011;54886;47.036;15.466;2023-05-02T08:21:18;8.52;;;5.15;;
68097;SDS011;54886;47.036;15.466;2023-05-02T08:23:43;8.23;;;4.90;;
68097;SDS011;54886;47.036;15.466;2023-05-02T08:26:10;8.48;;;5.05;;
68097;SDS011;54886;47.036;15.466;2023-05-02T08:28:35;7.53;;;4.95;;
68097;SDS011;54886;47.036;15.466;2023-05-02T08:31:01;7.55;;;4.80;;
68097;SDS011;54886;47.036;15.466;2023-05-02T08:33:26;8.63;;;4.80;;
68097;SDS011;54886;47.036;15.466;2023-05-02T08:35:52;7.97;;;4.72;;
68097;SDS011;54886;47.036;15.466;2023-05-02T08:38:18;7.28;;;4.55;;
68097;SDS011;54886;47.036;15.466;2023-05-02T08:40:43;7.05;;;4.57;;
68097;SDS011;54886;47.036;15.466;2023-05-02T08:43:12;8.95;;;4.72;;
68097;SDS011;54886;47.036;15.466;2023-05-02T08:45:41;6.88;;;4.43;;
68097;SDS011;54886;47.036;15.466;2023-05-02T08:48:08;7.88;;;4.35;;
68097;SDS011;54886;47.036;15.466;2023-05-02T08:50:38;6.95;;;4.38;;
68097;SDS011;54886;47.036;15.466;2023-05-02T08:53:09;8.27;;;4.75;;
68097;SDS011;54886;47.036;15.466;2023-05-02T08:55:37;7.72;;;4.20;;
68097;SDS011;54886;47.036;15.466;2023-05-02T08:58:04;6.97;;;4.32;;
68097;SDS011;54886;47.036;15.466;2023-05-02T09:00:31;6.85;;;4.32;;
68097;SDS011;54886;47.036;15.466;2023-05-02T09:03:10;7.93;;;4.53;;
68097;SDS011;54886;47.036;15.466;2023-05-02T09:05:43;5.88;;;3.58;;
68097;SDS011;54886;47.036;15.466;2023-05-02T09:08:11;6.15;;;3.92;;
68097;SDS011;54886;47.036;15.466;2023-05-02T09:10:36;6.25;;;3.65;;
68097;SDS011;54886;47.036;15.466;2023-05-02T09:16:13;5.32;;;3.50;;
68097;SDS011;54886;47.036;15.466;2023-05-02T09:21:13;5.95;;;3.55;;
68097;SDS011;54886;47.036;15.466;2023-05-02T09:23:41;5.22;;;3.47;;
68097;SDS011;54886;47.036;15.466;2023-05-02T09:26:26;6.97;;;3.75;;
68097;SDS011;54886;47.036;15.466;2023-05-02T09:28:57;6.13;;;3.40;;
68097;SDS011;54886;47.036;15.466;2023-05-02T09:31:28;7.72;;;3.30;;
68097;SDS011;54886;47.036;15.466;2023-05-02T09:33:57;5.78;;;3.25;;
68097;SDS011;54886;47.036;15.466;2023-05-02T09:36:37;5.15;;;3.45;;
68097;SDS011;54886;47.036;15.466;2023-05-02T09:39:11;4.90;;;3.33;;
68097;SDS011;54886;47.036;15.466;2023-05-02T09:41:41;4.35;;;3.00;;
68097;SDS011;54886;47.036;15.466;2023-05-02T09:44:08;6.68;;;3.10;;
68097;SDS011;54886;47.036;15.466;2023-05-02T09:46:39;6.45;;;3.33;;
68097;SDS011;54886;47.036;15.466;2023-05-02T09:49:08;5.18;;;3.08;;
68097;SDS011;54886;47.036;15.466;2023-05-02T09:51:36;5.40;;;2.92;;
68097;SDS011;54886;47.036;15.466;2023-05-02T09:54:02;5.50;;;3.10;;
68097;SDS011;54886;47.036;15.466;2023-05-02T09:56:28;5.80;;;2.85;;
68097;SDS011;54886;47.036;15.466;2023-05-02T10:01:57;4.43;;;2.70;;
68097;SDS011;54886;47.036;15.466;2023-05-02T10:04:24;4.90;;;2.90;;
68097;SDS011;54886;47.036;15.466;2023-05-02T10:06:50;3.70;;;2.53;;
68097;SDS011;54886;47.036;15.466;2023-05-02T10:09:17;3.38;;;2.47;;
68097;SDS011;54886;47.036;15.466;2023-05-02T10:11:43;7.60;;;2.60;;
68097;SDS011;54886;47.036;15.466;2023-05-02T10:14:10;4.60;;;2.70;;
68097;SDS011;54886;47.036;15.466;2023-05-02T10:16:59;3.63;;;2.55;;
68097;SDS011;54886;47.036;15.466;2023-05-02T10:19:40;2.92;;;2.58;;
68097;SDS011;54886;47.036;15.466;2023-05-02T10:22:14;2.53;;;2.33;;
68097;SDS011;54886;47.036;15.466;2023-05-02T10:24:42;4.53;;;2.60;;
68097;SDS011;54886;47.036;15.466;2023-05-02T10:27:08;2.53;;;2.25;;
68097;SDS011;54886;47.036;15.466;2023-05-02T10:29:33;6.75;;;2.60;;
68097;SDS011;54886;47.036;15.466;2023-05-02T10:32:00;5.53;;;2.55;;
68097;SDS011;54886;47.036;15.466;2023-05-02T10:34:27;4.70;;;2.60;;
68097;SDS011;54886;47.036;15.466;2023-05-02T10:36:57;3.33;;;2.42;;
68097;SDS011;54886;47.036;15.466;2023-05-02T10:39:26;3.58;;;2.60;;
68097;SDS011;54886;47.036;15.466;2023-05-02T10:41:53;5.70;;;2.70;;
68097;SDS011;54886;47.036;15.466;2023-05-02T10:46:57;3.55;;;2.47;;
68097;SDS011;54886;47.036;15.466;2023-05-02T10:49:23;3.30;;;2.33;;
68097;SDS011;54886;47.036;15.466;2023-05-02T10:51:51;4.07;;;2.63;;
68097;SDS011;54886;47.036;15.466;2023-05-02T10:54:21;3.88;;;2.50;;
68097;SDS011;54886;47.036;15.466;2023-05-02T10:57:07;4.05;;;2.42;;
68097;SDS011;54886;47.036;15.466;2023-05-02T11:02:04;3.05;;;2.28;;
68097;SDS011;54886;47.036;15.466;2023-05-02T11:07:30;2.95;;;2.40;;
68097;SDS011;54886;47.036;15.466;2023-05-02T11:10:29;4.57;;;2.73;;
68097;SDS011;54886;47.036;15.466;2023-05-02T11:12:55;2.70;;;2.05;;
68097;SDS011;54886;47.036;15.466;2023-05-02T11:18:01;3.22;;;2.38;;
68097;SDS011;54886;47.036;15.466;2023-05-02T11:20:31;4.40;;;2.53;;
68097;SDS011;54886;47.036;15.466;2023-05-02T11:23:19;4.00;;;2.83;;
68097;SDS011;54886;47.036;15.466;2023-05-02T11:25:50;3.60;;;2.40;;
68097;SDS011;54886;47.036;15.466;2023-05-02T11:30:58;6.65;;;2.50;;
68097;SDS011;54886;47.036;15.466;2023-05-02T11:33:24;4.07;;;2.60;;
68097;SDS011;54886;47.036;15.466;2023-05-02T11:35:51;3.13;;;2.50;;
68097;SDS011;54886;47.036;15.466;2023-05-02T11:38:17;5.45;;;2.67;;
68097;SDS011;54886;47.036;15.466;2023-05-02T11:43:20;2.72;;;2.30;;
68097;SDS011;54886;47.036;15.466;2023-05-02T11:45:46;4.45;;;2.55;;
68097;SDS011;54886;47.036;15.466;2023-05-02T11:48:12;3.85;;;2.17;;
68097;SDS011;54886;47.036;15.466;2023-05-02T11:50:41;4.43;;;2.70;;
68097;SDS011;54886;47.036;15.466;2023-05-02T11:53:14;3.70;;;2.22;;
68097;SDS011;54886;47.036;15.466;2023-05-02T11:55:51;4.15;;;2.30;;
68097;SDS011;54886;47.036;15.466;2023-05-02T11:58:18;3.17;;;2.40;;
68097;SDS011;54886;47.036;15.466;2023-05-02T12:00:46;4.75;;;2.70;;
68097;SDS011;54886;47.036;15.466;2023-05-02T12:03:23;4.30;;;2.58;;
68097;SDS011;54886;47.036;15.466;2023-05-02T12:05:48;4.45;;;2.42;;
68097;SDS011;54886;47.036;15.466;2023-05-02T12:08:18;3.55;;;2.60;;
68097;SDS011;54886;47.036;15.466;2023-05-02T12:10:46;4.20;;;2.40;;
68097;SDS011;54886;47.036;15.466;2023-05-02T12:13:13;3.58;;;2.47;;
68097;SDS011;54886;47.036;15.466;2023-05-02T12:15:38;2.53;;;2.28;;
68097;SDS011;54886;47.036;15.466;2023-05-02T12:18:04;2.88;;;2.20;;
68097;SDS011;54886;47.036;15.466;2023-05-02T12:20:30;4.53;;;2.50;;
68097;SDS011;54886;47.036;15.466;2023-05-02T12:22:56;4.57;;;2.40;;
68097;SDS011;54886;47.036;15.466;2023-05-02T12:25:22;2.80;;;2.17;;
68097;SDS011;54886;47.036;15.466;2023-05-02T12:27:59;4.43;;;2.42;;
68097;SDS011;54886;47.036;15.466;2023-05-02T12:30:26;6.35;;;2.58;;
68097;SDS011;54886;47.036;15.466;2023-05-02T12:32:56;4.85;;;2.33;;
68097;SDS011;54886;47.036;15.466;2023-05-02T12:35:23;3.70;;;2.20;;
68097;SDS011;54886;47.036;15.466;2023-05-02T12:37:48;3.53;;;2.28;;
68097;SDS011;54886;47.036;15.466;2023-05-02T12:40:14;6.82;;;2.70;;
68097;SDS011;54886;47.036;15.466;2023-05-02T12:42:41;3.00;;;2.15;;
68097;SDS011;54886;47.036;15.466;2023-05-02T12:45:16;3.88;;;2.40;;
68097;SDS011;54886;47.036;15.466;2023-05-02T12:47:45;4.97;;;2.40;;
68097;SDS011;54886;47.036;15.466;2023-05-02T12:50:10;3.33;;;2.13;;
68097;SDS011;54886;47.036;15.466;2023-05-02T12:52:46;3.92;;;2.38;;
68097;SDS011;54886;47.036;15.466;2023-05-02T12:55:22;4.05;;;2.30;;
68097;SDS011;54886;47.036;15.466;2023-05-02T12:57:48;3.63;;;2.20;;
68097;SDS011;54886;47.036;15.466;2023-05-02T13:00:17;4.00;;;2.25;;
68097;SDS011;54886;47.036;15.466;2023-05-02T13:02:43;2.97;;;2.25;;
68097;SDS011;54886;47.036;15.466;2023-05-02T13:05:15;5.80;;;2.45;;
68097;SDS011;54886;47.036;15.466;2023-05-02T13:07:44;3.97;;;2.30;;
68097;SDS011;54886;47.036;15.466;2023-05-02T13:10:10;2.53;;;2.10;;
68097;SDS011;54886;47.036;15.466;2023-05-02T13:12:37;7.17;;;2.53;;
68097;SDS011;54886;47.036;15.466;2023-05-02T13:15:03;4.63;;;2.15;;
68097;SDS011;54886;47.036;15.466;2023-05-02T13:17:29;4.15;;;2.33;;
68097;SDS011;54886;47.036;15.466;2023-05-02T13:19:55;4.75;;;2.38;;
68097;SDS011;54886;47.036;15.466;2023-05-02T13:22:20;5.60;;;2.35;;
68097;SDS011;54886;47.036;15.466;2023-05-02T13:24:46;4.38;;;2.35;;
68097;SDS011;54886;47.036;15.466;2023-05-02T13:27:11;5.53;;;2.35;;
68097;SDS011;54886;47.036;15.466;2023-05-02T13:29:36;6.00;;;2.55;;
68097;SDS011;54886;47.036;15.466;2023-05-02T13:32:02;4.00;;;2.20;;
68097;SDS011;54886;47.036;15.466;2023-05-02T13:34:27;2.42;;;2.00;;
68097;SDS011;54886;47.036;15.466;2023-05-02T13:36:53;3.42;;;2.25;;
68097;SDS011;54886;47.036;15.466;2023-05-02T13:39:18;2.60;;;2.10;;
68097;SDS011;54886;47.036;15.466;2023-05-02T13:41:43;4.97;;;2.20;;
68097;SDS011;54886;47.036;15.466;2023-05-02T13:44:09;2.63;;;2.10;;
68097;SDS011;54886;47.036;15.466;2023-05-02T13:46:34;4.20;;;1.80;;
68097;SDS011;54886;47.036;15.466;2023-05-02T13:49:02;3.38;;;1.70;;
68097;SDS011;54886;47.036;15.466;2023-05-02T13:51:33;4.20;;;2.05;;
68097;SDS011;54886;47.036;15.466;2023-05-02T13:53:58;2.75;;;1.92;;
68097;SDS011;54886;47.036;15.466;2023-05-02T13:56:24;4.07;;;1.52;;
68097;SDS011;54886;47.036;15.466;2023-05-02T13:58:49;1.92;;;1.77;;
68097;SDS011;54886;47.036;15.466;2023-05-02T14:01:15;2.40;;;1.70;;
68097;SDS011;54886;47.036;15.466;2023-05-02T14:03:41;2.55;;;1.70;;
68097;SDS011;54886;47.036;15.466;2023-05-02T14:06:07;1.77;;;1.55;;
68097;SDS011;54886;47.036;15.466;2023-05-02T14:08:32;1.90;;;1.70;;
68097;SDS011;54886;47.036;15.466;2023-05-02T14:10:57;2.05;;;1.60;;
68097;SDS011;54886;47.036;15.466;2023-05-02T14:13:23;4.43;;;2.10;;
68097;SDS011;54886;47.036;15.466;2023-05-02T14:15:48;2.40;;;1.60;;
68097;SDS011;54886;47.036;15.466;2023-05-02T14:18:14;1.70;;;1.60;;
68097;SDS011;54886;47.036;15.466;2023-05-02T14:20:40;1.80;;;1.58;;
68097;SDS011;54886;47.036;15.466;2023-05-02T14:23:06;1.88;;;1.70;;
68097;SDS011;54886;47.036;15.466;2023-05-02T14:25:32;2.60;;;1.60;;
68097;SDS011;54886;47.036;15.466;2023-05-02T14:27:57;2.60;;;1.60;;
68097;SDS011;54886;47.036;15.466;2023-05-02T14:30:23;1.50;;;1.40;;
68097;SDS011;54886;47.036;15.466;2023-05-02T14:32:48;2.08;;;1.80;;
68097;SDS011;54886;47.036;15.466;2023-05-02T14:35:14;2.60;;;1.60;;
68097;SDS011;54886;47.036;15.466;2023-05-02T14:37:39;1.92;;;1.50;;
68097;SDS011;54886;47.036;15.466;2023-05-02T14:40:05;2.63;;;1.60;;
68097;SDS011;54886;47.036;15.466;2023-05-02T14:42:31;2.47;;;1.50;;
68097;SDS011;54886;47.036;15.466;2023-05-02T14:44:57;1.77;;;1.25;;
68097;SDS011;54886;47.036;15.466;2023-05-02T14:47:26;1.40;;;1.30;;
68097;SDS011;54886;47.036;15.466;2023-05-02T14:49:52;1.60;;;1.50;;
68097;SDS011;54886;47.036;15.466;2023-05-02T14:52:18;1.50;;;1.20;;
68097;SDS011;54886;47.036;15.466;2023-05-02T14:54:43;1.48;;;1.38;;
68097;SDS011;54886;47.036;15.466;2023-05-02T14:57:09;1.30;;;1.20;;
68097;SDS011;54886;47.036;15.466;2023-05-02T14:59:35;1.20;;;1.10;;
68097;SDS011;54886;47.036;15.466;2023-05-02T15:02:02;1.90;;;1.40;;
68097;SDS011;54886;47.036;15.466;2023-05-02T15:04:28;1.75;;;1.20;;
68097;SDS011;54886;47.036;15.466;2023-05-02T15:06:54;1.50;;;1.40;;
68097;SDS011;54886;47.036;15.466;2023-05-02T15:09:20;1.65;;;1.30;;
68097;SDS011;54886;47.036;15.466;2023-05-02T15:11:47;1.73;;;1.42;;
68097;SDS011;54886;47.036;15.466;2023-05-02T15:14:12;2.20;;;1.30;;
68097;SDS011;54886;47.036;15.466;2023-05-02T15:16:38;1.55;;;1.33;;
68097;SDS011;54886;47.036;15.466;2023-05-02T15:19:03;1.50;;;1.40;;
68097;SDS011;54886;47.036;15.466;2023-05-02T15:21:29;2.10;;;1.30;;
68097;SDS011;54886;47.036;15.466;2023-05-02T15:23:54;2.83;;;1.30;;
68097;SDS011;54886;47.036;15.466;2023-05-02T15:26:20;2.80;;;1.80;;